createdAt,value
2023-02-08T00:00:34.971Z,5.10
2023-02-08T00:03:01.616Z,4.63
2023-02-08T00:05:28.323Z,3.90
2023-02-08T00:07:54.909Z,4.00
2023-02-08T00:10:21.551Z,4.50
2023-02-08T00:12:48.215Z,4.10
2023-02-08T00:15:15.233Z,4.10
2023-02-08T00:17:41.823Z,6.57
2023-02-08T00:20:09.107Z,4.60
2023-02-08T00:22:35.690Z,4.13
2023-02-08T00:25:02.640Z,4.77
2023-02-08T00:27:29.242Z,4.70
2023-02-08T00:29:55.889Z,4.17
2023-02-08T00:32:22.478Z,3.37
2023-02-08T00:34:49.076Z,3.57
2023-02-08T00:37:15.671Z,4.30
2023-02-08T00:39:42.330Z,4.37
2023-02-08T00:42:08.944Z,4.07
2023-02-08T00:44:35.630Z,3.77
2023-02-08T00:47:02.246Z,3.67
2023-02-08T00:49:28.870Z,4.00
2023-02-08T00:51:55.459Z,3.30
2023-02-08T00:54:22.067Z,3.10
2023-02-08T00:56:48.698Z,3.57
2023-02-08T00:59:15.344Z,2.77
2023-02-08T01:01:42.664Z,3.30
2023-02-08T01:04:09.360Z,3.10
2023-02-08T01:06:35.963Z,3.93
2023-02-08T01:09:02.606Z,3.27
2023-02-08T01:11:29.257Z,3.40
2023-02-08T01:13:57.421Z,3.93
2023-02-08T01:16:26.012Z,3.87
2023-02-08T01:18:53.468Z,3.50
2023-02-08T01:21:21.648Z,3.90
2023-02-08T01:23:48.428Z,3.30
2023-02-08T01:26:15.737Z,2.77
2023-02-08T01:28:42.503Z,3.80
2023-02-08T01:31:10.796Z,3.10
2023-02-08T01:33:37.572Z,3.57
2023-02-08T01:36:04.705Z,4.73
2023-02-08T01:38:31.876Z,3.97
2023-02-08T01:40:58.532Z,3.37
2023-02-08T01:43:27.729Z,3.47
2023-02-08T01:45:54.392Z,3.47
2023-02-08T01:48:47.411Z,3.33
2023-02-08T01:51:16.633Z,4.13
2023-02-08T01:53:43.252Z,4.60
2023-02-08T01:56:14.236Z,3.77
2023-02-08T01:58:43.820Z,3.57
2023-02-08T02:01:10.407Z,3.87
2023-02-08T02:03:37.009Z,4.93
2023-02-08T02:06:13.242Z,4.33
2023-02-08T02:08:42.472Z,4.17
2023-02-08T02:11:09.080Z,4.43
2023-02-08T02:13:36.093Z,4.23
2023-02-08T02:16:02.688Z,4.70
2023-02-08T02:18:30.484Z,4.10
2023-02-08T02:21:10.458Z,3.50
2023-02-08T02:24:01.640Z,4.00
2023-02-08T02:26:58.388Z,4.90
2023-02-08T02:29:30.644Z,4.57
2023-02-08T02:32:09.444Z,3.83
2023-02-08T02:34:54.660Z,3.80
2023-02-08T02:37:42.590Z,4.10
2023-02-08T02:40:22.198Z,2.93
2023-02-08T02:43:26.217Z,3.37
2023-02-08T02:46:04.731Z,3.03
2023-02-08T02:48:41.208Z,3.30
2023-02-08T02:51:15.165Z,3.20
2023-02-08T02:53:50.591Z,4.10
2023-02-08T02:56:24.673Z,3.33
2023-02-08T02:58:51.320Z,3.30
2023-02-08T03:01:29.842Z,4.93
2023-02-08T03:03:57.125Z,3.03
2023-02-08T03:07:07.169Z,3.73
2023-02-08T03:09:36.812Z,2.83
2023-02-08T03:12:55.910Z,3.90
2023-02-08T03:15:54.398Z,3.83
2023-02-08T03:18:30.471Z,2.70
2023-02-08T03:21:10.360Z,2.83
2023-02-08T03:23:48.674Z,3.10
2023-02-08T03:26:28.803Z,3.67
2023-02-08T03:29:09.680Z,3.13
2023-02-08T03:31:49.750Z,2.50
2023-02-08T03:34:24.424Z,2.77
2023-02-08T03:36:52.669Z,3.37
2023-02-08T03:39:25.172Z,2.80
2023-02-08T03:41:53.796Z,2.73
2023-02-08T03:44:38.455Z,2.70
2023-02-08T03:47:09.725Z,3.10
2023-02-08T03:49:36.759Z,2.37
2023-02-08T03:52:05.526Z,3.07
2023-02-08T03:54:33.933Z,2.60
2023-02-08T03:57:24.566Z,2.43
2023-02-08T04:00:00.205Z,2.97
2023-02-08T04:02:28.470Z,2.73
2023-02-08T04:04:55.120Z,2.90
2023-02-08T04:07:21.873Z,2.47
2023-02-08T04:09:48.497Z,2.60
2023-02-08T04:12:15.106Z,2.30
2023-02-08T04:14:41.712Z,2.43
2023-02-08T04:17:08.353Z,2.90
2023-02-08T04:19:34.972Z,2.70
2023-02-08T04:22:01.573Z,3.00
2023-02-08T04:24:28.211Z,2.43
2023-02-08T04:26:54.806Z,2.40
2023-02-08T04:29:21.519Z,2.50
2023-02-08T04:31:48.116Z,2.60
2023-02-08T04:34:14.820Z,2.80
2023-02-08T04:36:41.430Z,2.53
2023-02-08T04:39:08.047Z,2.37
2023-02-08T04:41:34.649Z,2.40
2023-02-08T04:44:01.270Z,2.73
2023-02-08T04:46:27.973Z,2.43
2023-02-08T04:48:54.605Z,2.80
2023-02-08T04:51:21.271Z,2.40
2023-02-08T04:53:47.866Z,3.17
2023-02-08T04:56:14.744Z,2.87
2023-02-08T04:58:41.364Z,2.13
2023-02-08T05:01:08.440Z,2.43
2023-02-08T05:03:35.280Z,2.43
2023-02-08T05:06:01.897Z,2.33
2023-02-08T05:08:28.984Z,2.10
2023-02-08T05:10:55.587Z,2.20
2023-02-08T05:13:22.190Z,2.20
2023-02-08T05:15:48.840Z,2.20
2023-02-08T05:18:15.440Z,2.20
2023-02-08T05:20:42.189Z,2.27
2023-02-08T05:23:09.020Z,2.33
2023-02-08T05:25:35.632Z,2.30
2023-02-08T05:28:02.285Z,1.90
2023-02-08T05:30:28.970Z,2.17
2023-02-08T05:32:55.585Z,3.40
2023-02-08T05:35:22.193Z,2.37
2023-02-08T05:37:49.014Z,2.33
2023-02-08T05:40:15.691Z,2.03
2023-02-08T05:42:43.067Z,2.00
2023-02-08T05:45:09.936Z,2.20
2023-02-08T05:47:36.872Z,2.20
2023-02-08T05:50:03.671Z,2.27
2023-02-08T05:52:30.305Z,2.10
2023-02-08T05:54:56.963Z,1.87
2023-02-08T05:57:23.569Z,2.10
2023-02-08T05:59:50.247Z,1.83
2023-02-08T06:02:16.840Z,1.67
2023-02-08T06:04:43.509Z,2.53
2023-02-08T06:07:10.095Z,2.03
2023-02-08T06:09:36.846Z,2.10
2023-02-08T06:12:03.545Z,1.70
2023-02-08T06:14:30.197Z,1.80
2023-02-08T06:16:56.837Z,1.83
2023-02-08T06:19:23.481Z,1.93
2023-02-08T06:21:50.079Z,1.70
2023-02-08T06:24:16.802Z,1.80
2023-02-08T06:26:43.893Z,2.43
2023-02-08T06:29:10.548Z,1.90
2023-02-08T06:31:37.217Z,3.30
2023-02-08T06:34:03.844Z,2.57
2023-02-08T06:36:30.452Z,3.63
2023-02-08T06:38:57.091Z,4.47
2023-02-08T06:41:23.691Z,2.47
2023-02-08T06:43:50.279Z,1.90
2023-02-08T06:46:16.963Z,2.50
2023-02-08T06:48:43.559Z,2.20
2023-02-08T06:51:10.167Z,2.10
2023-02-08T06:53:36.768Z,3.27
2023-02-08T06:56:03.516Z,2.17
2023-02-08T06:58:30.109Z,2.30
2023-02-08T07:00:56.765Z,1.80
2023-02-08T07:03:23.452Z,2.40
2023-02-08T07:06:04.182Z,2.33
2023-02-08T07:08:32.592Z,2.20
2023-02-08T07:10:59.256Z,3.57
2023-02-08T07:13:25.917Z,7.00
2023-02-08T07:15:53.023Z,7.43
2023-02-08T07:18:19.666Z,9.10
2023-02-08T07:20:46.282Z,6.40
2023-02-08T07:23:12.882Z,5.40
2023-02-08T07:25:39.515Z,5.77
2023-02-08T07:28:06.215Z,6.00
2023-02-08T07:30:32.973Z,4.50
2023-02-08T07:32:59.567Z,4.57
2023-02-08T07:35:26.234Z,3.83
2023-02-08T07:37:52.853Z,4.87
2023-02-08T07:40:19.563Z,5.40
2023-02-08T07:42:46.282Z,4.27
2023-02-08T07:45:12.899Z,4.37
2023-02-08T07:47:39.531Z,7.90
2023-02-08T07:50:06.523Z,6.27
2023-02-08T07:52:33.857Z,8.50
2023-02-08T07:55:00.475Z,7.83
2023-02-08T07:57:27.092Z,5.57
2023-02-08T07:59:54.300Z,6.03
2023-02-08T08:02:21.007Z,6.13
2023-02-08T08:04:47.756Z,4.63
2023-02-08T08:07:14.418Z,5.37
2023-02-08T08:09:41.143Z,5.57
2023-02-08T08:12:07.784Z,9.43
2023-02-08T08:14:34.383Z,25.97
2023-02-08T08:17:00.991Z,18.20
2023-02-08T08:19:28.238Z,16.77
2023-02-08T08:21:54.837Z,12.33
2023-02-08T08:24:21.457Z,11.53
2023-02-08T08:26:48.114Z,9.03
2023-02-08T08:29:14.898Z,5.63
2023-02-08T08:31:42.872Z,6.50
2023-02-08T08:34:09.672Z,10.23
2023-02-08T08:36:36.346Z,7.20
2023-02-08T08:39:02.964Z,5.17
2023-02-08T08:41:29.559Z,5.40
2023-02-08T08:43:56.165Z,4.60
2023-02-08T08:46:22.835Z,4.17
2023-02-08T08:48:51.552Z,3.33
2023-02-08T08:51:18.172Z,2.67
2023-02-08T08:53:44.771Z,2.13
2023-02-08T08:56:11.379Z,3.47
2023-02-08T08:58:38.024Z,2.70
2023-02-08T09:01:04.752Z,2.27
2023-02-08T09:03:31.581Z,2.77
2023-02-08T09:05:58.226Z,2.77
2023-02-08T09:08:24.826Z,1.70
2023-02-08T09:10:51.458Z,2.30
2023-02-08T09:13:21.705Z,2.27
2023-02-08T09:15:48.865Z,3.37
2023-02-08T09:18:15.860Z,3.50
2023-02-08T09:20:42.942Z,3.77
2023-02-08T09:23:09.699Z,2.83
2023-02-08T09:25:37.127Z,3.03
2023-02-08T09:28:04.134Z,2.90
2023-02-08T09:30:30.808Z,2.97
2023-02-08T09:32:57.409Z,2.70
2023-02-08T09:35:24.131Z,2.87
2023-02-08T09:37:55.272Z,2.33
2023-02-08T09:40:26.784Z,3.67
2023-02-08T09:43:13.241Z,2.83
2023-02-08T09:45:57.806Z,3.70
2023-02-08T09:48:45.039Z,2.87
2023-02-08T09:51:35.397Z,3.20
2023-02-08T09:54:09.155Z,2.40
2023-02-08T09:56:40.221Z,1.90
2023-02-08T09:59:12.006Z,1.87
2023-02-08T10:01:38.649Z,2.20
2023-02-08T10:04:26.735Z,1.90
2023-02-08T10:06:53.377Z,1.90
2023-02-08T10:09:22.499Z,1.90
2023-02-08T10:12:12.475Z,1.60
2023-02-08T10:15:00.458Z,1.67
2023-02-08T10:18:01.562Z,1.60
2023-02-08T10:20:38.260Z,1.57
2023-02-08T10:23:07.654Z,1.40
2023-02-08T10:26:08.820Z,1.30
2023-02-08T10:28:53.535Z,1.37
2023-02-08T10:31:38.794Z,1.50
2023-02-08T10:34:43.875Z,1.37
2023-02-08T10:37:21.249Z,1.20
2023-02-08T10:39:48.852Z,1.20
2023-02-08T10:42:17.612Z,1.03
2023-02-08T10:44:53.035Z,1.03
2023-02-08T10:47:27.473Z,0.80
2023-02-08T10:50:00.193Z,1.00
2023-02-08T10:52:27.083Z,1.00
2023-02-08T10:54:54.160Z,1.17
2023-02-08T10:57:29.829Z,0.80
2023-02-08T11:00:00.460Z,1.00
2023-02-08T11:02:29.906Z,1.00
2023-02-08T11:04:59.858Z,0.80
2023-02-08T11:07:26.488Z,0.73
2023-02-08T11:09:53.143Z,0.83
2023-02-08T11:12:21.191Z,0.80
2023-02-08T11:14:49.396Z,0.90
2023-02-08T11:17:30.616Z,0.80
2023-02-08T11:19:58.126Z,0.80
2023-02-08T11:22:25.697Z,0.83
2023-02-08T11:25:30.078Z,0.70
2023-02-08T11:27:56.698Z,0.60
2023-02-08T11:30:24.197Z,0.80
2023-02-08T11:33:18.474Z,0.80
2023-02-08T11:36:06.923Z,0.80
2023-02-08T11:38:34.880Z,0.90
2023-02-08T11:41:03.814Z,0.80
2023-02-08T11:43:34.833Z,0.97
2023-02-08T11:46:02.721Z,1.03
2023-02-08T11:48:40.801Z,0.87
2023-02-08T11:51:07.515Z,0.70
2023-02-08T11:53:39.533Z,0.87
2023-02-08T11:56:23.945Z,1.10
2023-02-08T11:59:21.913Z,0.87
2023-02-08T12:01:48.527Z,0.87
2023-02-08T12:04:16.119Z,0.80
2023-02-08T12:06:48.043Z,0.90
2023-02-08T12:09:27.288Z,1.00
2023-02-08T12:12:44.847Z,1.80
2023-02-08T12:15:58.316Z,1.30
2023-02-08T12:18:47.172Z,1.23
2023-02-08T12:21:26.754Z,1.67
2023-02-08T12:23:57.622Z,1.20
2023-02-08T12:26:26.148Z,1.30
2023-02-08T12:29:18.002Z,1.73
2023-02-08T12:31:50.379Z,1.20
2023-02-08T12:34:27.515Z,1.20
2023-02-08T12:37:24.892Z,0.90
2023-02-08T12:40:36.189Z,1.00
2023-02-08T12:43:13.971Z,1.13
2023-02-08T12:46:08.904Z,1.00
2023-02-08T12:49:05.177Z,0.90
2023-02-08T12:51:36.992Z,0.87
2023-02-08T12:54:07.877Z,1.20
2023-02-08T12:56:53.553Z,1.83
2023-02-08T12:59:39.584Z,1.07
2023-02-08T13:02:57.506Z,0.90
2023-02-08T13:05:26.684Z,0.90
2023-02-08T13:08:27.934Z,0.80
2023-02-08T13:11:03.504Z,0.70
2023-02-08T13:13:38.645Z,0.90
2023-02-08T13:16:24.248Z,0.90
2023-02-08T13:18:54.463Z,0.67
2023-02-08T13:21:24.442Z,0.60
2023-02-08T13:23:53.196Z,0.80
2023-02-08T13:26:26.460Z,0.90
2023-02-08T13:28:54.617Z,0.70
2023-02-08T13:31:26.971Z,0.53
2023-02-08T13:34:02.367Z,0.93
2023-02-08T13:36:36.981Z,0.80
2023-02-08T13:39:05.773Z,0.57
2023-02-08T13:41:32.577Z,0.70
2023-02-08T13:44:01.594Z,1.00
2023-02-08T13:46:29.069Z,0.70
2023-02-08T13:48:57.361Z,0.60
2023-02-08T13:51:53.502Z,1.27
2023-02-08T13:54:20.190Z,0.73
2023-02-08T13:56:48.837Z,0.60
2023-02-08T13:59:35.094Z,0.70
2023-02-08T14:02:19.065Z,0.57
2023-02-08T14:04:46.642Z,0.87
2023-02-08T14:07:30.124Z,0.73
2023-02-08T14:10:05.010Z,0.80
2023-02-08T14:12:36.734Z,0.70
2023-02-08T14:15:16.132Z,0.77
2023-02-08T14:17:47.041Z,0.70
2023-02-08T14:20:29.121Z,0.60
2023-02-08T14:22:57.275Z,0.60
2023-02-08T14:25:47.070Z,0.53
2023-02-08T14:28:27.344Z,0.50
2023-02-08T14:30:56.067Z,0.40
2023-02-08T14:33:25.361Z,0.60
2023-02-08T14:36:34.225Z,0.80
2023-02-08T14:39:21.464Z,0.50
2023-02-08T14:42:15.479Z,0.60
2023-02-08T14:44:43.062Z,0.70
2023-02-08T14:47:15.584Z,0.60
2023-02-08T14:49:43.337Z,0.60
2023-02-08T14:52:15.682Z,0.50
2023-02-08T14:54:48.082Z,1.00
2023-02-08T14:57:35.005Z,1.00
2023-02-08T15:00:04.724Z,0.60
2023-02-08T15:02:31.450Z,0.70
2023-02-08T15:04:58.767Z,0.83
2023-02-08T15:07:51.310Z,0.77
2023-02-08T15:10:18.787Z,0.87
2023-02-08T15:12:50.136Z,0.87
2023-02-08T15:15:31.442Z,0.80
2023-02-08T15:17:58.092Z,0.70
2023-02-08T15:20:34.680Z,0.70
2023-02-08T15:23:06.573Z,0.80
2023-02-08T15:25:37.266Z,1.10
2023-02-08T15:28:21.163Z,1.00
2023-02-08T15:30:59.269Z,0.80
2023-02-08T15:33:26.123Z,0.90
2023-02-08T15:35:57.887Z,0.87
2023-02-08T15:38:24.528Z,0.80
2023-02-08T15:41:30.189Z,0.87
2023-02-08T15:44:21.773Z,1.00
2023-02-08T15:46:48.766Z,1.10
2023-02-08T15:49:21.921Z,0.90
2023-02-08T15:51:48.583Z,0.90
2023-02-08T15:54:18.834Z,1.17
2023-02-08T15:57:17.410Z,0.70
2023-02-08T15:59:44.213Z,0.90
2023-02-08T16:02:28.776Z,0.73
2023-02-08T16:04:55.698Z,1.10
2023-02-08T16:07:39.463Z,0.80
2023-02-08T16:10:06.957Z,0.90
2023-02-08T16:12:33.568Z,0.70
2023-02-08T16:15:00.380Z,0.60
2023-02-08T16:17:33.478Z,0.80
2023-02-08T16:20:00.130Z,0.83
2023-02-08T16:22:31.005Z,0.73
2023-02-08T16:25:44.074Z,0.80
2023-02-08T16:28:29.499Z,0.70
2023-02-08T16:30:57.514Z,0.80
2023-02-08T16:33:24.371Z,0.93
2023-02-08T16:35:51.264Z,0.77
2023-02-08T16:38:22.398Z,0.70
2023-02-08T16:40:53.609Z,0.60
2023-02-08T16:43:24.550Z,0.70
2023-02-08T16:46:21.322Z,0.60
2023-02-08T16:48:52.556Z,0.83
2023-02-08T16:51:24.243Z,1.20
2023-02-08T16:53:51.976Z,0.70
2023-02-08T16:56:18.656Z,0.90
2023-02-08T16:58:45.368Z,0.60
2023-02-08T17:01:12.872Z,1.00
2023-02-08T17:03:39.860Z,0.80
2023-02-08T17:06:06.949Z,0.80
2023-02-08T17:08:35.789Z,0.80
2023-02-08T17:11:02.554Z,1.23
2023-02-08T17:13:29.206Z,0.93
2023-02-08T17:15:57.292Z,1.40
2023-02-08T17:18:23.948Z,1.60
2023-02-08T17:20:57.534Z,1.70
2023-02-08T17:23:24.134Z,1.30
2023-02-08T17:25:51.011Z,1.63
2023-02-08T17:28:18.778Z,1.70
2023-02-08T17:30:45.730Z,2.03
2023-02-08T17:33:17.933Z,3.27
2023-02-08T17:35:46.604Z,3.47
2023-02-08T17:38:13.821Z,2.77
2023-02-08T17:40:40.475Z,2.13
2023-02-08T17:43:07.084Z,2.67
2023-02-08T17:45:37.165Z,1.80
2023-02-08T17:48:03.912Z,2.13
2023-02-08T17:50:30.520Z,1.53
2023-02-08T17:52:57.112Z,1.63
2023-02-08T17:55:24.834Z,1.73
2023-02-08T17:57:51.504Z,1.87
2023-02-08T18:00:19.586Z,2.63
2023-02-08T18:02:47.855Z,3.10
2023-02-08T18:05:15.825Z,3.20
2023-02-08T18:07:42.643Z,4.13
2023-02-08T18:10:10.775Z,3.37
2023-02-08T18:12:37.605Z,2.90
2023-02-08T18:15:08.170Z,3.40
2023-02-08T18:17:34.826Z,2.60
2023-02-08T18:20:01.476Z,2.73
2023-02-08T18:22:28.138Z,3.10
2023-02-08T18:24:55.252Z,3.90
2023-02-08T18:27:22.934Z,3.80
2023-02-08T18:29:49.572Z,3.60
2023-02-08T18:32:16.340Z,4.50
2023-02-08T18:34:45.066Z,4.03
2023-02-08T18:37:11.689Z,5.47
2023-02-08T18:39:38.443Z,5.40
2023-02-08T18:42:05.079Z,4.57
2023-02-08T18:44:31.734Z,6.00
2023-02-08T18:46:58.384Z,6.20
2023-02-08T18:49:25.810Z,4.93
2023-02-08T18:51:52.433Z,4.77
2023-02-08T18:54:19.039Z,4.17
2023-02-08T18:56:45.794Z,5.53
2023-02-08T18:59:12.747Z,4.57
2023-02-08T19:01:39.473Z,4.60
2023-02-08T19:04:06.174Z,4.10
2023-02-08T19:06:35.559Z,4.50
2023-02-08T19:09:03.325Z,4.27
2023-02-08T19:11:32.107Z,2.90
2023-02-08T19:14:00.366Z,2.60
2023-02-08T19:16:27.708Z,3.93
2023-02-08T19:18:56.291Z,3.30
2023-02-08T19:21:22.960Z,3.17
2023-02-08T19:23:51.840Z,4.40
2023-02-08T19:26:23.462Z,2.63
2023-02-08T19:28:50.529Z,2.70
2023-02-08T19:31:20.129Z,3.80
2023-02-08T19:33:48.022Z,3.47
2023-02-08T19:36:19.408Z,3.87
2023-02-08T19:38:46.410Z,3.17
2023-02-08T19:41:15.711Z,2.60
2023-02-08T19:43:42.322Z,2.80
2023-02-08T19:46:13.282Z,2.83
2023-02-08T19:48:40.037Z,2.90
2023-02-08T19:51:06.760Z,2.63
2023-02-08T19:53:33.407Z,2.27
2023-02-08T19:56:04.064Z,3.13
2023-02-08T19:58:30.910Z,3.23
2023-02-08T20:00:57.656Z,2.37
2023-02-08T20:03:24.597Z,2.23
2023-02-08T20:05:51.506Z,3.00
2023-02-08T20:08:18.159Z,2.33
2023-02-08T20:10:45.995Z,2.20
2023-02-08T20:13:12.984Z,3.27
2023-02-08T20:15:43.155Z,2.57
2023-02-08T20:18:10.605Z,2.90
2023-02-08T20:20:37.303Z,2.27
2023-02-08T20:23:14.033Z,2.17
2023-02-08T20:25:47.425Z,2.03
2023-02-08T20:28:14.111Z,2.57
2023-02-08T20:30:41.022Z,1.80
2023-02-08T20:33:07.659Z,2.13
2023-02-08T20:35:36.096Z,2.20
2023-02-08T20:38:02.704Z,2.47
2023-02-08T20:40:29.358Z,2.30
2023-02-08T20:42:55.945Z,2.90
2023-02-08T20:45:22.694Z,2.63
2023-02-08T20:47:49.285Z,2.70
2023-02-08T20:50:19.468Z,2.30
2023-02-08T20:52:47.274Z,2.83
2023-02-08T20:55:13.894Z,3.30
2023-02-08T20:57:40.609Z,3.97
2023-02-08T21:00:07.774Z,3.00
2023-02-08T21:02:34.493Z,2.27
2023-02-08T21:05:01.413Z,2.83
2023-02-08T21:07:28.009Z,2.03
2023-02-08T21:09:54.700Z,1.97
2023-02-08T21:12:21.425Z,2.80
2023-02-08T21:14:48.209Z,3.37
2023-02-08T21:17:14.814Z,2.67
2023-02-08T21:19:41.455Z,2.47
2023-02-08T21:22:08.076Z,2.40
2023-02-08T21:24:34.679Z,2.13
2023-02-08T21:27:01.365Z,2.90
2023-02-08T21:29:29.166Z,2.07
2023-02-08T21:31:57.390Z,2.63
2023-02-08T21:34:24.561Z,2.73
2023-02-08T21:36:51.306Z,2.47
2023-02-08T21:39:18.115Z,3.53
2023-02-08T21:41:44.863Z,2.20
2023-02-08T21:44:11.512Z,2.30
2023-02-08T21:46:38.185Z,2.10
2023-02-08T21:49:23.134Z,2.60
2023-02-08T21:52:08.258Z,2.33
2023-02-08T21:54:41.350Z,2.87
2023-02-08T21:57:25.702Z,2.40
2023-02-08T21:59:54.152Z,3.27
2023-02-08T22:02:23.338Z,2.87
2023-02-08T22:04:50.223Z,2.93
2023-02-08T22:07:17.349Z,2.67
2023-02-08T22:09:43.968Z,2.80
2023-02-08T22:12:13.945Z,2.70
2023-02-08T22:14:40.571Z,2.80
2023-02-08T22:17:07.221Z,3.20
2023-02-08T22:19:33.844Z,2.83
2023-02-08T22:22:02.183Z,3.37
2023-02-08T22:24:28.998Z,3.03
2023-02-08T22:26:55.905Z,2.63
2023-02-08T22:29:22.947Z,4.43
2023-02-08T22:31:49.642Z,3.20
2023-02-08T22:34:16.392Z,3.50
2023-02-08T22:36:43.017Z,4.10
2023-02-08T22:39:09.701Z,3.23
2023-02-08T22:41:36.354Z,3.33
2023-02-08T22:44:02.958Z,4.50
2023-02-08T22:46:29.605Z,4.63
2023-02-08T22:48:56.231Z,3.33
2023-02-08T22:51:23.572Z,3.77
2023-02-08T22:53:50.238Z,3.80
2023-02-08T22:56:17.450Z,4.00
2023-02-08T22:58:44.070Z,3.67
2023-02-08T23:01:12.072Z,3.87
2023-02-08T23:03:38.887Z,4.57
2023-02-08T23:06:06.975Z,3.40
2023-02-08T23:08:33.786Z,4.03
2023-02-08T23:11:04.777Z,4.43
2023-02-08T23:13:31.703Z,3.50
2023-02-08T23:15:58.490Z,3.47
2023-02-08T23:18:25.172Z,4.10
2023-02-08T23:20:51.842Z,4.73
2023-02-08T23:23:18.680Z,5.93
2023-02-08T23:25:45.291Z,5.43
2023-02-08T23:28:12.233Z,5.33
2023-02-08T23:30:40.148Z,3.77
2023-02-08T23:33:06.757Z,4.70
2023-02-08T23:35:33.408Z,4.90
2023-02-08T23:38:00.338Z,3.77
2023-02-08T23:40:26.952Z,3.50
2023-02-08T23:42:53.545Z,3.87
2023-02-08T23:45:20.334Z,2.97
2023-02-08T23:47:46.920Z,3.77
2023-02-08T23:50:13.546Z,4.20
2023-02-08T23:52:40.146Z,3.63
2023-02-08T23:55:07.168Z,4.13
2023-02-08T23:57:34.768Z,3.17
